sensor_id;sensor_type;location;lat;lon;timestamp;temperature;humidity
21823;DHT22;11074;48.596;9.238;2023-03-11T00:00:42;5.00;99.90
21823;DHT22;11074;48.596;9.238;2023-03-11T00:03:11;5.00;99.90
21823;DHT22;11074;48.596;9.238;2023-03-11T00:05:41;4.90;99.90
21823;DHT22;11074;48.596;9.238;2023-03-11T00:08:14;4.90;99.90
21823;DHT22;11074;48.596;9.238;2023-03-11T00:10:43;4.90;99.90
21823;DHT22;11074;48.596;9.238;2023-03-11T00:13:13;4.90;99.90
21823;DHT22;11074;48.596;9.238;2023-03-11T00:15:41;4.80;99.90
21823;DHT22;11074;48.596;9.238;2023-03-11T00:18:09;4.90;99.90
21823;DHT22;11074;48.596;9.238;2023-03-11T00:20:37;4.90;99.90
21823;DHT22;11074;48.596;9.238;2023-03-11T00:23:06;4.80;99.90
21823;DHT22;11074;48.596;9.238;2023-03-11T00:25:35;4.70;99.90
21823;DHT22;11074;48.596;9.238;2023-03-11T00:28:03;4.70;99.90
21823;DHT22;11074;48.596;9.238;2023-03-11T00:30:31;4.70;99.90
21823;DHT22;11074;48.596;9.238;2023-03-11T00:32:58;4.70;99.90
21823;DHT22;11074;48.596;9.238;2023-03-11T00:35:27;4.70;99.90
21823;DHT22;11074;48.596;9.238;2023-03-11T00:37:58;4.70;99.90
21823;DHT22;11074;48.596;9.238;2023-03-11T00:40:27;4.80;99.90
21823;DHT22;11074;48.596;9.238;2023-03-11T00:42:55;4.80;99.90
21823;DHT22;11074;48.596;9.238;2023-03-11T00:45:21;4.80;99.90
21823;DHT22;11074;48.596;9.238;2023-03-11T00:47:47;4.70;99.90
21823;DHT22;11074;48.596;9.238;2023-03-11T00:50:23;4.80;99.90
21823;DHT22;11074;48.596;9.238;2023-03-11T00:52:54;4.80;99.90
21823;DHT22;11074;48.596;9.238;2023-03-11T00:55:23;4.80;99.90
21823;DHT22;11074;48.596;9.238;2023-03-11T00:57:56;4.80;99.90
21823;DHT22;11074;48.596;9.238;2023-03-11T01:00:25;4.80;99.90
21823;DHT22;11074;48.596;9.238;2023-03-11T01:02:53;4.80;99.90
21823;DHT22;11074;48.596;9.238;2023-03-11T01:05:22;4.80;99.90
21823;DHT22;11074;48.596;9.238;2023-03-11T01:07:51;4.90;99.90
21823;DHT22;11074;48.596;9.238;2023-03-11T01:10:17;4.90;99.90
21823;DHT22;11074;48.596;9.238;2023-03-11T01:12:44;4.80;99.90
21823;DHT22;11074;48.596;9.238;2023-03-11T01:15:20;4.90;99.90
21823;DHT22;11074;48.596;9.238;2023-03-11T01:17:48;4.90;99.90
21823;DHT22;11074;48.596;9.238;2023-03-11T01:20:14;4.90;99.90
21823;DHT22;11074;48.596;9.238;2023-03-11T01:22:40;4.90;99.90
21823;DHT22;11074;48.596;9.238;2023-03-11T01:25:06;4.90;99.90
21823;DHT22;11074;48.596;9.238;2023-03-11T01:27:33;5.00;99.90
21823;DHT22;11074;48.596;9.238;2023-03-11T01:29:59;5.00;99.90
21823;DHT22;11074;48.596;9.238;2023-03-11T01:32:25;4.90;99.90
21823;DHT22;11074;48.596;9.238;2023-03-11T01:34:51;4.90;99.90
21823;DHT22;11074;48.596;9.238;2023-03-11T01:37:16;4.90;99.90
21823;DHT22;11074;48.596;9.238;2023-03-11T01:39:44;5.00;99.90
21823;DHT22;11074;48.596;9.238;2023-03-11T01:42:10;4.90;99.90
21823;DHT22;11074;48.596;9.238;2023-03-11T01:44:35;4.90;99.90
21823;DHT22;11074;48.596;9.238;2023-03-11T01:49:27;4.90;99.90
21823;DHT22;11074;48.596;9.238;2023-03-11T01:51:56;4.80;99.90
21823;DHT22;11074;48.596;9.238;2023-03-11T01:54:30;4.70;99.90
21823;DHT22;11074;48.596;9.238;2023-03-11T01:57:01;4.70;99.90
21823;DHT22;11074;48.596;9.238;2023-03-11T01:59:41;4.80;99.90
21823;DHT22;11074;48.596;9.238;2023-03-11T02:02:35;4.70;99.90
21823;DHT22;11074;48.596;9.238;2023-03-11T02:05:07;4.70;99.90
21823;DHT22;11074;48.596;9.238;2023-03-11T02:07:34;4.80;99.90
21823;DHT22;11074;48.596;9.238;2023-03-11T02:10:00;4.80;99.90
21823;DHT22;11074;48.596;9.238;2023-03-11T02:12:28;4.80;99.90
21823;DHT22;11074;48.596;9.238;2023-03-11T02:14:58;4.80;99.90
21823;DHT22;11074;48.596;9.238;2023-03-11T02:17:25;4.90;99.90
21823;DHT22;11074;48.596;9.238;2023-03-11T02:22:28;4.80;99.90
21823;DHT22;11074;48.596;9.238;2023-03-11T02:25:06;4.80;99.90
21823;DHT22;11074;48.596;9.238;2023-03-11T02:27:45;4.70;99.90
21823;DHT22;11074;48.596;9.238;2023-03-11T02:30:14;4.70;99.90
21823;DHT22;11074;48.596;9.238;2023-03-11T02:32:42;4.70;99.90
21823;DHT22;11074;48.596;9.238;2023-03-11T02:35:09;4.60;99.90
21823;DHT22;11074;48.596;9.238;2023-03-11T02:37:35;4.50;99.90
21823;DHT22;11074;48.596;9.238;2023-03-11T02:40:35;4.40;99.90
21823;DHT22;11074;48.596;9.238;2023-03-11T02:43:10;4.40;99.90
21823;DHT22;11074;48.596;9.238;2023-03-11T02:45:40;4.40;99.90
21823;DHT22;11074;48.596;9.238;2023-03-11T02:48:11;4.40;99.90
21823;DHT22;11074;48.596;9.238;2023-03-11T02:50:39;4.30;99.90
21823;DHT22;11074;48.596;9.238;2023-03-11T02:53:06;4.20;99.90
21823;DHT22;11074;48.596;9.238;2023-03-11T02:55:32;4.20;99.90
21823;DHT22;11074;48.596;9.238;2023-03-11T02:57:58;4.20;99.90
21823;DHT22;11074;48.596;9.238;2023-03-11T03:00:24;4.10;99.90
21823;DHT22;11074;48.596;9.238;2023-03-11T03:02:50;4.10;99.90
21823;DHT22;11074;48.596;9.238;2023-03-11T03:05:17;4.00;99.90
21823;DHT22;11074;48.596;9.238;2023-03-11T03:07:47;4.00;99.90
21823;DHT22;11074;48.596;9.238;2023-03-11T03:10:15;4.10;99.90
21823;DHT22;11074;48.596;9.238;2023-03-11T03:12:42;4.10;99.90
21823;DHT22;11074;48.596;9.238;2023-03-11T03:15:09;4.10;99.90
21823;DHT22;11074;48.596;9.238;2023-03-11T03:17:35;4.10;99.90
21823;DHT22;11074;48.596;9.238;2023-03-11T03:20:02;4.10;99.90
21823;DHT22;11074;48.596;9.238;2023-03-11T03:22:30;3.90;99.90
21823;DHT22;11074;48.596;9.238;2023-03-11T03:24:56;3.90;99.90
21823;DHT22;11074;48.596;9.238;2023-03-11T03:27:22;3.90;99.90
21823;DHT22;11074;48.596;9.238;2023-03-11T03:29:47;3.70;99.90
21823;DHT22;11074;48.596;9.238;2023-03-11T03:32:13;3.70;99.90
21823;DHT22;11074;48.596;9.238;2023-03-11T03:34:39;3.80;99.90
21823;DHT22;11074;48.596;9.238;2023-03-11T03:37:05;3.80;99.90
21823;DHT22;11074;48.596;9.238;2023-03-11T03:39:31;3.80;99.90
21823;DHT22;11074;48.596;9.238;2023-03-11T03:41:57;3.80;99.90
21823;DHT22;11074;48.596;9.238;2023-03-11T03:44:23;3.70;99.90
21823;DHT22;11074;48.596;9.238;2023-03-11T03:46:49;3.70;99.90
21823;DHT22;11074;48.596;9.238;2023-03-11T03:49:15;3.70;99.90
21823;DHT22;11074;48.596;9.238;2023-03-11T03:51:41;3.70;99.90
21823;DHT22;11074;48.596;9.238;2023-03-11T03:54:06;3.60;99.90
21823;DHT22;11074;48.596;9.238;2023-03-11T03:56:32;3.60;99.90
21823;DHT22;11074;48.596;9.238;2023-03-11T03:58:58;3.60;99.90
21823;DHT22;11074;48.596;9.238;2023-03-11T04:01:24;3.60;99.90
21823;DHT22;11074;48.596;9.238;2023-03-11T04:03:49;3.60;99.90
21823;DHT22;11074;48.596;9.238;2023-03-11T04:06:25;3.60;99.90
21823;DHT22;11074;48.596;9.238;2023-03-11T04:08:53;3.70;99.90
21823;DHT22;11074;48.596;9.238;2023-03-11T04:11:19;3.70;99.90
21823;DHT22;11074;48.596;9.238;2023-03-11T04:13:46;3.70;99.90
21823;DHT22;11074;48.596;9.238;2023-03-11T04:16:16;3.70;99.90
21823;DHT22;11074;48.596;9.238;2023-03-11T04:18:44;3.70;99.90
21823;DHT22;11074;48.596;9.238;2023-03-11T04:21:10;3.60;99.90
21823;DHT22;11074;48.596;9.238;2023-03-11T04:23:36;3.60;99.90
21823;DHT22;11074;48.596;9.238;2023-03-11T04:26:02;3.60;99.90
21823;DHT22;11074;48.596;9.238;2023-03-11T04:28:27;3.60;99.90
21823;DHT22;11074;48.596;9.238;2023-03-11T04:30:53;3.60;99.90
21823;DHT22;11074;48.596;9.238;2023-03-11T04:33:19;3.60;99.90
21823;DHT22;11074;48.596;9.238;2023-03-11T04:35:45;3.60;99.90
21823;DHT22;11074;48.596;9.238;2023-03-11T04:38:11;3.60;99.90
21823;DHT22;11074;48.596;9.238;2023-03-11T04:40:37;3.60;99.90
21823;DHT22;11074;48.596;9.238;2023-03-11T04:43:03;3.50;99.90
21823;DHT22;11074;48.596;9.238;2023-03-11T04:45:30;3.50;99.90
21823;DHT22;11074;48.596;9.238;2023-03-11T04:47:55;3.40;99.90
21823;DHT22;11074;48.596;9.238;2023-03-11T04:50:21;3.40;99.90
21823;DHT22;11074;48.596;9.238;2023-03-11T04:52:47;3.40;99.90
21823;DHT22;11074;48.596;9.238;2023-03-11T04:55:13;3.40;99.90
21823;DHT22;11074;48.596;9.238;2023-03-11T04:57:40;3.40;99.90
21823;DHT22;11074;48.596;9.238;2023-03-11T05:00:08;3.40;99.90
21823;DHT22;11074;48.596;9.238;2023-03-11T05:02:38;3.40;99.90
21823;DHT22;11074;48.596;9.238;2023-03-11T05:05:05;3.30;99.90
21823;DHT22;11074;48.596;9.238;2023-03-11T05:07:32;3.10;99.90
21823;DHT22;11074;48.596;9.238;2023-03-11T05:09:57;3.10;99.90
21823;DHT22;11074;48.596;9.238;2023-03-11T05:12:23;3.10;99.90
21823;DHT22;11074;48.596;9.238;2023-03-11T05:14:49;3.10;99.90
21823;DHT22;11074;48.596;9.238;2023-03-11T05:17:15;3.10;99.90
21823;DHT22;11074;48.596;9.238;2023-03-11T05:19:43;3.10;99.90
21823;DHT22;11074;48.596;9.238;2023-03-11T05:22:08;3.00;99.90
21823;DHT22;11074;48.596;9.238;2023-03-11T05:24:37;3.00;99.90
21823;DHT22;11074;48.596;9.238;2023-03-11T05:27:04;3.00;99.90
21823;DHT22;11074;48.596;9.238;2023-03-11T05:29:30;3.00;99.90
21823;DHT22;11074;48.596;9.238;2023-03-11T05:31:56;3.00;99.90
21823;DHT22;11074;48.596;9.238;2023-03-11T05:34:22;3.00;99.90
21823;DHT22;11074;48.596;9.238;2023-03-11T05:36:48;2.90;99.90
21823;DHT22;11074;48.596;9.238;2023-03-11T05:39:14;2.90;99.90
21823;DHT22;11074;48.596;9.238;2023-03-11T05:41:40;2.90;99.90
21823;DHT22;11074;48.596;9.238;2023-03-11T05:44:06;2.90;99.90
21823;DHT22;11074;48.596;9.238;2023-03-11T05:46:32;3.00;99.90
21823;DHT22;11074;48.596;9.238;2023-03-11T05:49:01;2.90;99.90
21823;DHT22;11074;48.596;9.238;2023-03-11T05:51:29;2.90;99.90
21823;DHT22;11074;48.596;9.238;2023-03-11T05:53:55;2.90;99.90
21823;DHT22;11074;48.596;9.238;2023-03-11T05:56:23;2.90;99.90
21823;DHT22;11074;48.596;9.238;2023-03-11T05:58:49;2.90;99.90
21823;DHT22;11074;48.596;9.238;2023-03-11T06:01:18;2.90;99.90
21823;DHT22;11074;48.596;9.238;2023-03-11T06:03:45;2.80;99.90
21823;DHT22;11074;48.596;9.238;2023-03-11T06:06:12;2.70;99.90
21823;DHT22;11074;48.596;9.238;2023-03-11T06:08:38;2.80;99.90
21823;DHT22;11074;48.596;9.238;2023-03-11T06:11:07;2.80;99.90
21823;DHT22;11074;48.596;9.238;2023-03-11T06:13:35;2.90;99.90
21823;DHT22;11074;48.596;9.238;2023-03-11T06:16:01;3.00;99.90
21823;DHT22;11074;48.596;9.238;2023-03-11T06:18:28;2.90;99.90
21823;DHT22;11074;48.596;9.238;2023-03-11T06:20:57;2.90;99.90
21823;DHT22;11074;48.596;9.238;2023-03-11T06:23:24;2.90;99.90
21823;DHT22;11074;48.596;9.238;2023-03-11T06:25:57;2.90;99.90
21823;DHT22;11074;48.596;9.238;2023-03-11T06:28:24;2.90;99.90
21823;DHT22;11074;48.596;9.238;2023-03-11T06:30:51;2.80;99.90
21823;DHT22;11074;48.596;9.238;2023-03-11T06:33:17;2.90;99.90
21823;DHT22;11074;48.596;9.238;2023-03-11T06:35:43;3.00;99.90
21823;DHT22;11074;48.596;9.238;2023-03-11T06:38:10;3.00;99.90
21823;DHT22;11074;48.596;9.238;2023-03-11T06:40:36;3.10;99.90
21823;DHT22;11074;48.596;9.238;2023-03-11T06:43:02;3.20;99.90
21823;DHT22;11074;48.596;9.238;2023-03-11T06:45:28;3.30;99.90
21823;DHT22;11074;48.596;9.238;2023-03-11T06:47:54;3.40;99.90
21823;DHT22;11074;48.596;9.238;2023-03-11T06:50:19;3.50;99.90
21823;DHT22;11074;48.596;9.238;2023-03-11T06:52:48;3.60;99.90
21823;DHT22;11074;48.596;9.238;2023-03-11T06:55:13;3.70;99.90
21823;DHT22;11074;48.596;9.238;2023-03-11T06:57:39;3.70;99.90
21823;DHT22;11074;48.596;9.238;2023-03-11T07:00:06;3.80;99.90
21823;DHT22;11074;48.596;9.238;2023-03-11T07:02:36;3.90;99.90
21823;DHT22;11074;48.596;9.238;2023-03-11T07:05:02;3.80;99.90
21823;DHT22;11074;48.596;9.238;2023-03-11T07:07:28;3.80;99.90
21823;DHT22;11074;48.596;9.238;2023-03-11T07:09:55;3.80;99.90
21823;DHT22;11074;48.596;9.238;2023-03-11T07:12:22;3.80;99.90
21823;DHT22;11074;48.596;9.238;2023-03-11T07:14:59;3.80;99.90
21823;DHT22;11074;48.596;9.238;2023-03-11T07:17:25;3.80;99.90
21823;DHT22;11074;48.596;9.238;2023-03-11T07:19:53;3.90;99.90
21823;DHT22;11074;48.596;9.238;2023-03-11T07:22:19;4.00;99.90
21823;DHT22;11074;48.596;9.238;2023-03-11T07:24:49;4.10;99.90
21823;DHT22;11074;48.596;9.238;2023-03-11T07:27:15;4.30;99.90
21823;DHT22;11074;48.596;9.238;2023-03-11T07:29:40;4.20;99.90
21823;DHT22;11074;48.596;9.238;2023-03-11T07:32:07;4.00;99.90
21823;DHT22;11074;48.596;9.238;2023-03-11T07:34:33;4.00;99.90
21823;DHT22;11074;48.596;9.238;2023-03-11T07:36:59;3.70;99.90
21823;DHT22;11074;48.596;9.238;2023-03-11T07:39:28;3.60;99.90
21823;DHT22;11074;48.596;9.238;2023-03-11T07:41:56;3.70;99.90
21823;DHT22;11074;48.596;9.238;2023-03-11T07:44:22;3.80;99.90
21823;DHT22;11074;48.596;9.238;2023-03-11T07:46:48;4.00;99.90
21823;DHT22;11074;48.596;9.238;2023-03-11T07:49:14;4.00;99.90
21823;DHT22;11074;48.596;9.238;2023-03-11T07:51:40;4.20;99.90
21823;DHT22;11074;48.596;9.238;2023-03-11T07:54:10;4.30;99.90
21823;DHT22;11074;48.596;9.238;2023-03-11T07:56:37;4.30;99.90
21823;DHT22;11074;48.596;9.238;2023-03-11T07:59:04;4.20;99.90
21823;DHT22;11074;48.596;9.238;2023-03-11T08:01:32;4.20;99.90
21823;DHT22;11074;48.596;9.238;2023-03-11T08:04:03;4.30;99.90
21823;DHT22;11074;48.596;9.238;2023-03-11T08:06:32;4.30;99.90
21823;DHT22;11074;48.596;9.238;2023-03-11T08:08:59;4.30;99.90
21823;DHT22;11074;48.596;9.238;2023-03-11T08:11:27;4.40;99.90
21823;DHT22;11074;48.596;9.238;2023-03-11T08:13:54;4.40;99.90
21823;DHT22;11074;48.596;9.238;2023-03-11T08:16:22;4.30;99.90
21823;DHT22;11074;48.596;9.238;2023-03-11T08:19:12;4.10;99.90
21823;DHT22;11074;48.596;9.238;2023-03-11T08:21:38;4.20;99.90
21823;DHT22;11074;48.596;9.238;2023-03-11T08:24:05;4.40;99.90
21823;DHT22;11074;48.596;9.238;2023-03-11T08:26:31;4.50;99.90
21823;DHT22;11074;48.596;9.238;2023-03-11T08:28:57;4.60;99.90
21823;DHT22;11074;48.596;9.238;2023-03-11T08:31:29;4.50;99.90
21823;DHT22;11074;48.596;9.238;2023-03-11T08:34:01;4.60;99.90
21823;DHT22;11074;48.596;9.238;2023-03-11T08:36:30;4.60;99.90
21823;DHT22;11074;48.596;9.238;2023-03-11T08:38:57;4.50;99.90
21823;DHT22;11074;48.596;9.238;2023-03-11T08:41:25;4.60;99.90
21823;DHT22;11074;48.596;9.238;2023-03-11T08:43:52;4.70;99.90
21823;DHT22;11074;48.596;9.238;2023-03-11T08:46:30;4.60;99.90
21823;DHT22;11074;48.596;9.238;2023-03-11T08:49:00;4.50;99.90
21823;DHT22;11074;48.596;9.238;2023-03-11T08:51:29;4.40;99.90
21823;DHT22;11074;48.596;9.238;2023-03-11T08:54:06;4.50;99.90
21823;DHT22;11074;48.596;9.238;2023-03-11T08:56:33;4.50;99.90
21823;DHT22;11074;48.596;9.238;2023-03-11T08:58:59;4.60;99.90
21823;DHT22;11074;48.596;9.238;2023-03-11T09:01:25;4.60;99.90
21823;DHT22;11074;48.596;9.238;2023-03-11T09:03:51;4.70;99.90
21823;DHT22;11074;48.596;9.238;2023-03-11T09:06:18;4.80;99.90
21823;DHT22;11074;48.596;9.238;2023-03-11T09:08:44;5.10;99.90
21823;DHT22;11074;48.596;9.238;2023-03-11T09:11:11;5.40;99.90
21823;DHT22;11074;48.596;9.238;2023-03-11T09:13:38;5.60;99.90
21823;DHT22;11074;48.596;9.238;2023-03-11T09:16:07;5.60;99.90
21823;DHT22;11074;48.596;9.238;2023-03-11T09:18:38;5.70;99.90
21823;DHT22;11074;48.596;9.238;2023-03-11T09:21:04;5.70;99.90
21823;DHT22;11074;48.596;9.238;2023-03-11T09:23:30;5.60;99.90
21823;DHT22;11074;48.596;9.238;2023-03-11T09:25:56;5.60;99.90
21823;DHT22;11074;48.596;9.238;2023-03-11T09:28:22;5.60;99.90
21823;DHT22;11074;48.596;9.238;2023-03-11T09:30:48;5.50;99.90
21823;DHT22;11074;48.596;9.238;2023-03-11T09:33:14;5.50;99.90
21823;DHT22;11074;48.596;9.238;2023-03-11T09:35:40;5.50;99.90
21823;DHT22;11074;48.596;9.238;2023-03-11T09:38:06;5.50;99.90
21823;DHT22;11074;48.596;9.238;2023-03-11T09:40:58;5.50;99.90
21823;DHT22;11074;48.596;9.238;2023-03-11T09:52:35;5.70;99.90
21823;DHT22;11074;48.596;9.238;2023-03-11T09:58:02;5.50;99.90
21823;DHT22;11074;48.596;9.238;2023-03-11T10:00:34;5.50;99.90
21823;DHT22;11074;48.596;9.238;2023-03-11T10:03:01;5.50;99.90
21823;DHT22;11074;48.596;9.238;2023-03-11T10:05:30;5.40;99.90
21823;DHT22;11074;48.596;9.238;2023-03-11T10:08:14;5.40;99.90
21823;DHT22;11074;48.596;9.238;2023-03-11T10:11:15;5.40;99.90
21823;DHT22;11074;48.596;9.238;2023-03-11T10:23:29;6.30;99.90
21823;DHT22;11074;48.596;9.238;2023-03-11T10:26:11;6.50;99.90
21823;DHT22;11074;48.596;9.238;2023-03-11T10:29:34;6.80;99.90
21823;DHT22;11074;48.596;9.238;2023-03-11T10:32:28;7.00;99.90
21823;DHT22;11074;48.596;9.238;2023-03-11T10:35:22;7.10;99.90
21823;DHT22;11074;48.596;9.238;2023-03-11T10:37:54;6.80;99.90
21823;DHT22;11074;48.596;9.238;2023-03-11T10:40:34;6.60;99.90
21823;DHT22;11074;48.596;9.238;2023-03-11T10:43:11;6.50;99.90
21823;DHT22;11074;48.596;9.238;2023-03-11T10:45:42;6.40;99.90
21823;DHT22;11074;48.596;9.238;2023-03-11T10:48:15;6.30;99.90
21823;DHT22;11074;48.596;9.238;2023-03-11T10:51:00;6.20;99.90
21823;DHT22;11074;48.596;9.238;2023-03-11T10:53:28;6.20;99.90
21823;DHT22;11074;48.596;9.238;2023-03-11T10:55:57;6.10;99.90
21823;DHT22;11074;48.596;9.238;2023-03-11T10:58:28;6.10;99.90
21823;DHT22;11074;48.596;9.238;2023-03-11T11:01:00;6.30;99.90
21823;DHT22;11074;48.596;9.238;2023-03-11T11:03:28;6.50;99.90
21823;DHT22;11074;48.596;9.238;2023-03-11T11:06:06;6.70;99.90
21823;DHT22;11074;48.596;9.238;2023-03-11T11:08:47;6.80;99.90
21823;DHT22;11074;48.596;9.238;2023-03-11T11:11:22;6.70;99.90
21823;DHT22;11074;48.596;9.238;2023-03-11T11:13:56;6.70;99.90
21823;DHT22;11074;48.596;9.238;2023-03-11T11:16:23;6.70;99.90
21823;DHT22;11074;48.596;9.238;2023-03-11T11:29:39;6.50;99.90
21823;DHT22;11074;48.596;9.238;2023-03-11T11:37:36;6.90;99.90
21823;DHT22;11074;48.596;9.238;2023-03-11T11:45:29;6.70;99.90
21823;DHT22;11074;48.596;9.238;2023-03-11T11:48:12;6.60;99.90
21823;DHT22;11074;48.596;9.238;2023-03-11T11:50:59;6.60;99.90
21823;DHT22;11074;48.596;9.238;2023-03-11T11:53:41;6.70;99.90
21823;DHT22;11074;48.596;9.238;2023-03-11T11:56:11;6.90;99.90
21823;DHT22;11074;48.596;9.238;2023-03-11T11:58:39;7.60;99.90
21823;DHT22;11074;48.596;9.238;2023-03-11T12:12:35;9.50;99.90
21823;DHT22;11074;48.596;9.238;2023-03-11T12:15:29;9.70;99.90
21823;DHT22;11074;48.596;9.238;2023-03-11T12:18:10;10.00;99.90
21823;DHT22;11074;48.596;9.238;2023-03-11T12:20:48;10.20;99.90
21823;DHT22;11074;48.596;9.238;2023-03-11T12:27:28;10.60;99.90
21823;DHT22;11074;48.596;9.238;2023-03-11T12:30:04;10.90;99.90
21823;DHT22;11074;48.596;9.238;2023-03-11T12:32:43;11.30;99.90
21823;DHT22;11074;48.596;9.238;2023-03-11T12:35:24;11.50;99.90
21823;DHT22;11074;48.596;9.238;2023-03-11T12:38:17;11.60;99.90
21823;DHT22;11074;48.596;9.238;2023-03-11T12:46:57;11.80;99.90
21823;DHT22;11074;48.596;9.238;2023-03-11T12:49:23;11.90;99.90
21823;DHT22;11074;48.596;9.238;2023-03-11T12:54:44;12.00;99.90
21823;DHT22;11074;48.596;9.238;2023-03-11T12:57:36;11.40;99.90
21823;DHT22;11074;48.596;9.238;2023-03-11T13:03:38;10.20;99.90
21823;DHT22;11074;48.596;9.238;2023-03-11T13:08:56;11.00;99.90
21823;DHT22;11074;48.596;9.238;2023-03-11T13:16:39;12.20;99.90
21823;DHT22;11074;48.596;9.238;2023-03-11T13:22:03;12.50;99.90
21823;DHT22;11074;48.596;9.238;2023-03-11T13:25:16;12.40;99.90
21823;DHT22;11074;48.596;9.238;2023-03-11T13:27:51;12.60;99.90
21823;DHT22;11074;48.596;9.238;2023-03-11T13:30:33;12.80;99.90
21823;DHT22;11074;48.596;9.238;2023-03-11T13:33:16;13.00;99.90
21823;DHT22;11074;48.596;9.238;2023-03-11T13:39:44;13.20;99.90
21823;DHT22;11074;48.596;9.238;2023-03-11T13:42:49;13.10;99.90
21823;DHT22;11074;48.596;9.238;2023-03-11T13:45:31;12.60;99.90
21823;DHT22;11074;48.596;9.238;2023-03-11T13:51:39;13.00;99.90
21823;DHT22;11074;48.596;9.238;2023-03-11T13:54:29;12.80;99.90
21823;DHT22;11074;48.596;9.238;2023-03-11T13:57:18;12.80;99.90
21823;DHT22;11074;48.596;9.238;2023-03-11T13:59:55;13.10;99.90
21823;DHT22;11074;48.596;9.238;2023-03-11T14:02:26;13.30;99.90
21823;DHT22;11074;48.596;9.238;2023-03-11T14:04:57;13.60;99.90
21823;DHT22;11074;48.596;9.238;2023-03-11T14:07:31;13.60;99.90
21823;DHT22;11074;48.596;9.238;2023-03-11T14:13:24;13.20;99.90
21823;DHT22;11074;48.596;9.238;2023-03-11T14:16:00;13.40;99.90
21823;DHT22;11074;48.596;9.238;2023-03-11T14:20:59;13.40;99.90
21823;DHT22;11074;48.596;9.238;2023-03-11T14:23:33;13.40;99.90
21823;DHT22;11074;48.596;9.238;2023-03-11T14:26:12;13.80;99.90
21823;DHT22;11074;48.596;9.238;2023-03-11T14:28:51;13.90;99.60
21823;DHT22;11074;48.596;9.238;2023-03-11T14:31:40;14.40;99.90
21823;DHT22;11074;48.596;9.238;2023-03-11T14:34:19;15.40;98.80
21823;DHT22;11074;48.596;9.238;2023-03-11T14:36:56;16.10;96.00
21823;DHT22;11074;48.596;9.238;2023-03-11T14:39:29;16.50;94.90
21823;DHT22;11074;48.596;9.238;2023-03-11T14:42:27;16.30;94.50
21823;DHT22;11074;48.596;9.238;2023-03-11T14:50:25;15.20;94.80
21823;DHT22;11074;48.596;9.238;2023-03-11T14:53:39;16.10;95.50
21823;DHT22;11074;48.596;9.238;2023-03-11T15:01:04;15.70;94.60
21823;DHT22;11074;48.596;9.238;2023-03-11T15:03:40;15.30;94.70
21823;DHT22;11074;48.596;9.238;2023-03-11T15:06:14;14.70;95.80
21823;DHT22;11074;48.596;9.238;2023-03-11T15:09:05;14.00;96.60
21823;DHT22;11074;48.596;9.238;2023-03-11T15:11:58;13.10;97.40
21823;DHT22;11074;48.596;9.238;2023-03-11T15:17:13;12.40;97.70
21823;DHT22;11074;48.596;9.238;2023-03-11T15:19:40;12.00;98.20
21823;DHT22;11074;48.596;9.238;2023-03-11T15:24:58;11.50;99.90
21823;DHT22;11074;48.596;9.238;2023-03-11T15:27:32;11.20;99.90
21823;DHT22;11074;48.596;9.238;2023-03-11T15:30:01;10.90;99.90
21823;DHT22;11074;48.596;9.238;2023-03-11T15:32:43;10.70;99.90
21823;DHT22;11074;48.596;9.238;2023-03-11T15:35:44;10.60;99.90
21823;DHT22;11074;48.596;9.238;2023-03-11T15:38:18;10.50;99.90
21823;DHT22;11074;48.596;9.238;2023-03-11T15:41:08;10.40;99.90
21823;DHT22;11074;48.596;9.238;2023-03-11T15:43:46;10.40;99.90
21823;DHT22;11074;48.596;9.238;2023-03-11T15:46:13;10.30;99.90
21823;DHT22;11074;48.596;9.238;2023-03-11T15:48:38;10.30;99.90
21823;DHT22;11074;48.596;9.238;2023-03-11T15:51:17;10.10;99.90
21823;DHT22;11074;48.596;9.238;2023-03-11T15:53:44;10.00;99.90
21823;DHT22;11074;48.596;9.238;2023-03-11T15:56:15;9.80;99.90
21823;DHT22;11074;48.596;9.238;2023-03-11T15:58:47;9.70;99.90
21823;DHT22;11074;48.596;9.238;2023-03-11T16:01:12;9.60;99.90
21823;DHT22;11074;48.596;9.238;2023-03-11T16:03:38;9.50;99.90
21823;DHT22;11074;48.596;9.238;2023-03-11T16:06:04;9.40;99.90
21823;DHT22;11074;48.596;9.238;2023-03-11T16:08:30;9.20;99.90
21823;DHT22;11074;48.596;9.238;2023-03-11T16:10:56;9.10;99.90
21823;DHT22;11074;48.596;9.238;2023-03-11T16:13:22;8.90;99.90
21823;DHT22;11074;48.596;9.238;2023-03-11T16:15:48;8.60;99.90
21823;DHT22;11074;48.596;9.238;2023-03-11T16:18:13;8.50;99.90
21823;DHT22;11074;48.596;9.238;2023-03-11T16:20:41;8.40;99.90
21823;DHT22;11074;48.596;9.238;2023-03-11T16:23:22;8.40;99.90
21823;DHT22;11074;48.596;9.238;2023-03-11T16:25:54;8.30;99.90
21823;DHT22;11074;48.596;9.238;2023-03-11T16:28:23;8.30;99.90
21823;DHT22;11074;48.596;9.238;2023-03-11T16:30:49;8.30;99.90
21823;DHT22;11074;48.596;9.238;2023-03-11T16:33:16;8.30;99.90
21823;DHT22;11074;48.596;9.238;2023-03-11T16:35:41;8.30;99.90
21823;DHT22;11074;48.596;9.238;2023-03-11T16:38:07;8.30;99.90
21823;DHT22;11074;48.596;9.238;2023-03-11T16:40:34;8.20;99.90
21823;DHT22;11074;48.596;9.238;2023-03-11T16:43:03;8.20;99.90
21823;DHT22;11074;48.596;9.238;2023-03-11T16:45:33;8.10;99.90
21823;DHT22;11074;48.596;9.238;2023-03-11T16:47:59;8.10;99.90
21823;DHT22;11074;48.596;9.238;2023-03-11T16:50:25;8.20;99.90
21823;DHT22;11074;48.596;9.238;2023-03-11T16:52:52;8.20;99.90
21823;DHT22;11074;48.596;9.238;2023-03-11T16:55:20;8.10;99.90
21823;DHT22;11074;48.596;9.238;2023-03-11T16:57:45;8.20;99.90
21823;DHT22;11074;48.596;9.238;2023-03-11T17:00:12;8.10;99.90
21823;DHT22;11074;48.596;9.238;2023-03-11T17:02:39;8.10;99.90
21823;DHT22;11074;48.596;9.238;2023-03-11T17:05:06;8.10;99.90
21823;DHT22;11074;48.596;9.238;2023-03-11T17:07:33;8.00;99.90
21823;DHT22;11074;48.596;9.238;2023-03-11T17:10:00;7.90;99.90
21823;DHT22;11074;48.596;9.238;2023-03-11T17:12:26;7.90;99.90
21823;DHT22;11074;48.596;9.238;2023-03-11T17:14:53;7.90;99.90
21823;DHT22;11074;48.596;9.238;2023-03-11T17:17:19;7.90;99.90
21823;DHT22;11074;48.596;9.238;2023-03-11T17:19:46;7.80;99.90
21823;DHT22;11074;48.596;9.238;2023-03-11T17:22:12;7.70;99.90
21823;DHT22;11074;48.596;9.238;2023-03-11T17:24:40;7.70;99.90
21823;DHT22;11074;48.596;9.238;2023-03-11T17:27:05;7.60;99.90
21823;DHT22;11074;48.596;9.238;2023-03-11T17:29:31;7.60;99.90
21823;DHT22;11074;48.596;9.238;2023-03-11T17:31:58;7.60;99.90
21823;DHT22;11074;48.596;9.238;2023-03-11T17:34:25;7.60;99.90
21823;DHT22;11074;48.596;9.238;2023-03-11T17:36:51;7.60;99.90
21823;DHT22;11074;48.596;9.238;2023-03-11T17:39:17;7.60;99.90
21823;DHT22;11074;48.596;9.238;2023-03-11T17:41:43;7.50;99.90
21823;DHT22;11074;48.596;9.238;2023-03-11T17:44:09;7.40;99.90
21823;DHT22;11074;48.596;9.238;2023-03-11T17:46:37;7.40;99.90
21823;DHT22;11074;48.596;9.238;2023-03-11T17:49:12;7.30;99.90
21823;DHT22;11074;48.596;9.238;2023-03-11T17:51:39;7.30;99.90
21823;DHT22;11074;48.596;9.238;2023-03-11T17:54:05;7.20;99.90
21823;DHT22;11074;48.596;9.238;2023-03-11T17:56:30;7.10;99.90
21823;DHT22;11074;48.596;9.238;2023-03-11T17:58:56;7.10;99.90